createdAt,value
2022-11-23T00:04:57.664Z,2.9
2022-11-23T00:10:48.121Z,2.1
2022-11-23T00:16:39.687Z,2.2
2022-11-23T00:22:31.593Z,2.2
2022-11-23T00:28:30.596Z,1.9
2022-11-23T00:34:29.238Z,1.6
2022-11-23T00:40:28.359Z,2.1
2022-11-23T00:46:25.327Z,1.8
2022-11-23T00:52:16.431Z,2.3
2022-11-23T00:58:10.023Z,2
2022-11-23T01:04:07.417Z,2.4
2022-11-23T01:10:12.928Z,2.9
2022-11-23T01:16:13.327Z,2.1
2022-11-23T01:22:05.173Z,2
2022-11-23T01:28:07.630Z,2
2022-11-23T01:33:59.924Z,1.7
2022-11-23T01:39:57.861Z,2.1
2022-11-23T01:45:58.574Z,2.1
2022-11-23T01:51:51.380Z,2.1
2022-11-23T01:57:44.393Z,2
2022-11-23T02:03:43.075Z,1.9
2022-11-23T02:09:34.186Z,2.5
2022-11-23T02:15:38.537Z,2
2022-11-23T02:21:28.717Z,2.5
2022-11-23T02:27:32.986Z,2.6
2022-11-23T02:33:28.583Z,2.8
2022-11-23T02:39:18.489Z,2.1
2022-11-23T02:45:19.450Z,2.3
2022-11-23T02:51:18.374Z,2.2
2022-11-23T02:57:15.037Z,2.3
2022-11-23T03:03:12.940Z,2.1
2022-11-23T03:09:14.860Z,2.5
2022-11-23T03:15:09.853Z,2.3
2022-11-23T03:21:05.498Z,2.6
2022-11-23T03:27:09.682Z,2.6
2022-11-23T03:39:12.520Z,2.3
2022-11-23T03:45:35.102Z,2.5
2022-11-23T03:51:37.536Z,2.3
2022-11-23T03:57:29.381Z,2.3
2022-11-23T04:03:28.904Z,1.8
2022-11-23T04:09:18.526Z,2.4
2022-11-23T04:15:10.022Z,2.2
2022-11-23T04:21:22.593Z,2.7
2022-11-23T04:27:15.862Z,2.5
2022-11-23T04:33:19.212Z,2.6
2022-11-23T04:39:33.119Z,2.1
2022-11-23T04:45:28.980Z,2.2
2022-11-23T04:51:29.253Z,2.4
2022-11-23T04:57:20.645Z,2.2
2022-11-23T05:03:11.486Z,3.2
2022-11-23T05:09:06.957Z,3
2022-11-23T05:14:58.971Z,2.1
2022-11-23T05:20:55.365Z,2.2
2022-11-23T05:32:53.831Z,1.9
2022-11-23T05:39:00.686Z,2.3
2022-11-23T05:45:01.258Z,2.2
2022-11-23T05:50:54.900Z,2.5
2022-11-23T05:56:47.997Z,3.1
2022-11-23T06:02:57.967Z,3.4
2022-11-23T06:09:08.538Z,3.2
2022-11-23T06:15:04.013Z,2.9
2022-11-23T06:21:39.483Z,3.3
2022-11-23T06:27:34.747Z,3.9
2022-11-23T06:33:48.786Z,3.8
2022-11-23T06:39:42.879Z,3
2022-11-23T06:46:07.062Z,3.1
2022-11-23T06:52:14.850Z,3.6
2022-11-23T06:58:29.940Z,3.7
2022-11-23T07:11:21.481Z,3.3
2022-11-23T07:17:34.524Z,3.8
2022-11-23T07:23:47.125Z,3.7
2022-11-23T07:29:52.805Z,3.6
2022-11-23T07:35:50.213Z,3.9
2022-11-23T07:41:41.640Z,3.7
2022-11-23T07:48:23.069Z,3.2
2022-11-23T07:54:35.578Z,3.7
2022-11-23T08:00:25.626Z,4.1
2022-11-23T08:13:11.871Z,3.9
2022-11-23T08:19:04.288Z,3.3
2022-11-23T08:25:07.378Z,3.8
2022-11-23T08:31:00.718Z,3.1
2022-11-23T08:37:27.044Z,3.8
2022-11-23T08:43:32.693Z,3.6
2022-11-23T08:49:40.363Z,3.1
2022-11-23T08:55:39.744Z,3.4
2022-11-23T09:01:40.967Z,3.7
2022-11-23T09:07:38.578Z,2.9
2022-11-23T09:13:38.793Z,2.8
2022-11-23T09:19:39.701Z,4
2022-11-23T09:25:32.848Z,4.2
2022-11-23T09:31:39.135Z,3.7
2022-11-23T09:37:29.198Z,4
2022-11-23T09:43:33.327Z,4.1
2022-11-23T09:49:24.052Z,3.3
2022-11-23T09:55:23.873Z,3.1
2022-11-23T10:01:14.420Z,2.3
2022-11-23T10:07:07.869Z,3.1
2022-11-23T10:12:58.814Z,3.3
2022-11-23T10:18:55.209Z,3.2
2022-11-23T10:24:50.478Z,2.7
2022-11-23T10:30:43.322Z,2.9
2022-11-23T10:42:34.076Z,2.6
2022-11-23T10:54:48.087Z,2.5
2022-11-23T11:00:41.381Z,2.4
2022-11-23T11:06:39.356Z,3.8
2022-11-23T11:12:36.618Z,3.3
2022-11-23T11:18:47.979Z,2.5
2022-11-23T11:24:52.473Z,2.5
2022-11-23T11:30:57.351Z,2.6
2022-11-23T11:36:52.270Z,2.1
2022-11-23T11:42:59.463Z,3
2022-11-23T11:49:09.915Z,2.5
2022-11-23T11:55:12.006Z,3.1
2022-11-23T12:01:05.868Z,3.8
2022-11-23T12:07:01.422Z,3.9
2022-11-23T12:12:53.969Z,4.5
2022-11-23T12:18:46.544Z,4.1
2022-11-23T12:30:31.035Z,3.9
2022-11-23T12:36:29.877Z,4.2
2022-11-23T12:42:42.978Z,4.8
2022-11-23T12:48:57.269Z,4
2022-11-23T13:00:53.894Z,3.8
2022-11-23T13:07:50.975Z,3.3
2022-11-23T13:14:31.938Z,2.5
2022-11-23T13:26:35.618Z,2.6
2022-11-23T13:32:26.270Z,2.6
2022-11-23T13:38:22.656Z,2.4
2022-11-23T13:44:26.838Z,2.6
2022-11-23T13:50:17.912Z,2.4
2022-11-23T13:56:25.004Z,2.3
2022-11-23T14:02:34.411Z,2.4
2022-11-23T14:08:36.808Z,2.5
2022-11-23T14:14:41.747Z,2.4
2022-11-23T14:33:18.001Z,2.3
2022-11-23T14:39:12.969Z,2.4
2022-11-23T14:46:42.962Z,1.8
2022-11-23T14:53:23.631Z,2.2
2022-11-23T15:26:00.834Z,2.5
2022-11-23T15:32:45.696Z,2.8
2022-11-23T15:39:10.330Z,2.5
2022-11-23T15:52:38.658Z,2.4
2022-11-23T16:12:05.816Z,2.3
2022-11-23T16:18:14.135Z,3.3
2022-11-23T16:24:02.942Z,2.7
2022-11-23T16:29:52.675Z,3
2022-11-23T16:35:42.647Z,2.2
2022-11-23T16:41:33.198Z,2.5
2022-11-23T16:47:24.633Z,3.3
2022-11-23T16:53:16.435Z,3.1
2022-11-23T16:59:13.763Z,2.6
2022-11-23T17:05:04.278Z,1.9
2022-11-23T17:10:55.819Z,2.2
2022-11-23T17:16:44.741Z,3.2
2022-11-23T17:22:34.420Z,3.1
2022-11-23T17:28:24.443Z,4.6
2022-11-23T17:34:12.936Z,3.6
2022-11-23T17:40:03.631Z,4.6
2022-11-23T17:45:54.124Z,4.4
2022-11-23T17:51:45.009Z,4.3
2022-11-23T17:57:35.989Z,3.8
2022-11-23T18:03:27.167Z,3.5
2022-11-23T18:09:19.218Z,4.3
2022-11-23T18:15:09.456Z,5.1
2022-11-23T18:20:59.884Z,5.9
2022-11-23T18:26:50.957Z,4.4
2022-11-23T18:32:40.718Z,3.9
2022-11-23T18:38:31.336Z,4
2022-11-23T18:44:21.479Z,5.6
2022-11-23T18:50:13.673Z,4.6
2022-11-23T18:56:08.480Z,4.3
2022-11-23T19:01:58.865Z,4.4
2022-11-23T19:07:50.569Z,4.3
2022-11-23T19:13:41.031Z,4.9
2022-11-23T19:19:32.155Z,4.7
2022-11-23T19:25:23.478Z,4.4
2022-11-23T19:31:14.294Z,5.6
2022-11-23T19:37:07.008Z,5.2
2022-11-23T19:42:56.235Z,4
2022-11-23T19:48:46.799Z,5.1
2022-11-23T19:54:38.307Z,4.7
2022-11-23T20:00:28.282Z,4.8
2022-11-23T20:06:20.090Z,6
2022-11-23T20:12:10.799Z,5.2
2022-11-23T20:18:01.734Z,4.2
2022-11-23T20:23:52.162Z,5.4
2022-11-23T20:29:43.400Z,6
2022-11-23T20:35:33.928Z,4.6
2022-11-23T20:41:24.091Z,4.7
2022-11-23T20:47:14.901Z,4.2
2022-11-23T20:53:06.258Z,5.3
2022-11-23T20:58:59.543Z,6.3
2022-11-23T21:04:49.230Z,7.9
2022-11-23T21:10:38.231Z,7.9
2022-11-23T21:16:29.904Z,8
2022-11-23T21:22:19.436Z,9.7
2022-11-23T21:28:10.279Z,14.4
2022-11-23T21:34:01.758Z,8.4
2022-11-23T21:40:00.576Z,6.7
2022-11-23T21:45:49.947Z,6.1
2022-11-23T21:51:40.494Z,5.2
2022-11-23T21:57:31.308Z,5.7
2022-11-23T22:03:20.495Z,5.2
2022-11-23T22:09:11.557Z,5.2
2022-11-23T22:15:02.739Z,5.8
2022-11-23T22:20:52.770Z,5.2
2022-11-23T22:26:47.426Z,4.9
2022-11-23T22:32:36.972Z,4.7
2022-11-23T22:38:27.387Z,4.7
2022-11-23T22:44:24.052Z,11.7
2022-11-23T22:50:15.021Z,16.6
2022-11-23T22:56:05.761Z,6
2022-11-23T23:08:02.712Z,5.7
2022-11-23T23:13:55.793Z,5.1
2022-11-23T23:19:52.014Z,4.5
2022-11-23T23:25:47.896Z,4.6
2022-11-23T23:31:38.475Z,5.3
2022-11-23T23:37:28.852Z,4.1
2022-11-23T23:43:20.992Z,4.1
2022-11-23T23:49:10.249Z,4.1
2022-11-23T23:55:01.079Z,4.3
